createdAt,value
2017-05-31T00:01:46.722Z,82.30
2017-05-31T00:04:15.285Z,82.90
2017-05-31T00:06:43.541Z,82.30
2017-05-31T00:09:11.794Z,82.40
2017-05-31T00:11:40.073Z,82.60
2017-05-31T00:14:08.326Z,82.70
2017-05-31T00:16:36.869Z,82.80
2017-05-31T00:19:05.142Z,83.40
2017-05-31T00:21:33.397Z,82.80
2017-05-31T00:24:01.649Z,83.30
2017-05-31T00:26:29.925Z,83.30
2017-05-31T00:28:58.178Z,83.40
2017-05-31T00:31:26.435Z,83.10
2017-05-31T00:33:55.006Z,83.10
2017-05-31T00:36:23.341Z,82.80
2017-05-31T00:38:51.594Z,82.70
2017-05-31T00:41:19.870Z,82.40
2017-05-31T00:43:48.127Z,82.90
2017-05-31T00:46:16.382Z,82.70
2017-05-31T00:48:44.717Z,82.50
2017-05-31T00:51:12.974Z,82.40
2017-05-31T00:53:41.229Z,81.80
2017-05-31T00:56:09.501Z,81.50
2017-05-31T00:58:37.754Z,81.40
2017-05-31T01:01:06.006Z,80.80
2017-05-31T01:03:34.278Z,81.10
2017-05-31T01:06:02.529Z,81.90
2017-05-31T01:08:30.788Z,81.80
2017-05-31T01:10:59.067Z,82.30
2017-05-31T01:13:27.326Z,83.40
2017-05-31T01:15:55.646Z,83.10
2017-05-31T01:18:23.923Z,83.00
2017-05-31T01:20:52.178Z,83.00
2017-05-31T01:23:20.430Z,83.60
2017-05-31T01:25:48.709Z,83.40
2017-05-31T01:28:16.962Z,83.40
2017-05-31T01:30:45.213Z,83.20
2017-05-31T01:33:13.502Z,83.40
2017-05-31T01:35:41.758Z,83.50
2017-05-31T01:38:10.009Z,83.60
2017-05-31T01:40:38.281Z,83.80
2017-05-31T01:43:06.533Z,83.80
2017-05-31T01:45:34.849Z,83.50
2017-05-31T01:48:03.124Z,83.60
2017-05-31T01:50:31.385Z,83.40
2017-05-31T01:52:59.643Z,83.60
2017-05-31T01:55:27.921Z,83.50
2017-05-31T01:57:56.177Z,83.40
2017-05-31T02:00:24.433Z,83.60
2017-05-31T02:02:52.709Z,84.20
2017-05-31T02:05:20.963Z,84.40
2017-05-31T02:07:49.218Z,84.40
2017-05-31T02:10:17.494Z,84.50
2017-05-31T02:12:45.750Z,85.30
2017-05-31T02:15:14.002Z,84.70
2017-05-31T02:17:42.433Z,84.60
2017-05-31T02:20:10.686Z,84.70
2017-05-31T02:22:38.942Z,84.70
2017-05-31T02:25:07.217Z,84.80
2017-05-31T02:27:35.470Z,85.20
2017-05-31T02:30:03.723Z,84.80
2017-05-31T02:32:32.030Z,84.60
2017-05-31T02:35:00.286Z,84.50
2017-05-31T02:37:28.541Z,84.90
2017-05-31T02:39:56.813Z,84.70
2017-05-31T02:42:25.065Z,84.40
2017-05-31T02:44:53.317Z,83.90
2017-05-31T02:47:21.598Z,85.20
2017-05-31T02:49:49.858Z,85.70
2017-05-31T02:52:18.109Z,86.90
2017-05-31T02:54:46.382Z,87.10
2017-05-31T02:57:14.633Z,88.30
2017-05-31T02:59:42.889Z,87.60
2017-05-31T03:02:11.166Z,87.80
2017-05-31T03:04:39.421Z,88.00
2017-05-31T03:07:07.674Z,87.00
2017-05-31T03:09:35.949Z,86.20
2017-05-31T03:12:04.202Z,85.80
2017-05-31T03:14:32.453Z,85.50
2017-05-31T03:17:00.726Z,84.90
2017-05-31T03:19:28.986Z,86.90
2017-05-31T03:21:57.293Z,87.90
2017-05-31T03:24:25.569Z,87.20
2017-05-31T03:26:53.822Z,86.60
2017-05-31T03:29:22.077Z,86.50
2017-05-31T03:31:50.398Z,86.40
2017-05-31T03:34:18.658Z,85.90
2017-05-31T03:36:46.914Z,85.40
2017-05-31T03:39:15.189Z,85.50
2017-05-31T03:41:43.441Z,86.00
2017-05-31T03:44:11.693Z,85.90
2017-05-31T03:46:39.962Z,85.80
2017-05-31T03:49:08.214Z,84.70
2017-05-31T03:51:36.470Z,84.30
2017-05-31T03:54:04.748Z,83.60
2017-05-31T03:56:33.006Z,83.50
2017-05-31T03:59:01.330Z,83.50
2017-05-31T04:01:29.602Z,83.80
2017-05-31T04:03:57.854Z,84.00
2017-05-31T04:06:26.113Z,83.60
2017-05-31T04:08:54.389Z,83.00
2017-05-31T04:11:22.642Z,82.90
2017-05-31T04:13:50.893Z,82.90
2017-05-31T04:16:19.166Z,82.30
2017-05-31T04:18:47.417Z,82.10
2017-05-31T04:21:15.678Z,81.70
2017-05-31T04:23:43.954Z,82.10
2017-05-31T04:26:12.206Z,82.10
2017-05-31T04:28:40.462Z,82.60
2017-05-31T04:31:08.738Z,82.70
2017-05-31T04:33:36.990Z,82.20
2017-05-31T04:36:05.242Z,81.20
2017-05-31T04:38:33.518Z,81.50
2017-05-31T04:41:01.773Z,81.80
2017-05-31T04:43:30.030Z,80.40
2017-05-31T04:45:58.302Z,78.40
2017-05-31T04:48:26.638Z,78.70
2017-05-31T04:50:54.895Z,79.40
2017-05-31T04:53:23.178Z,79.00
2017-05-31T04:55:51.429Z,78.60
2017-05-31T04:58:19.683Z,77.00
2017-05-31T05:00:47.957Z,76.40
2017-05-31T05:03:16.210Z,74.00
2017-05-31T05:05:44.461Z,71.70
2017-05-31T05:08:12.737Z,69.20
2017-05-31T05:10:40.989Z,69.30
2017-05-31T05:13:09.241Z,70.10
2017-05-31T05:15:37.590Z,71.10
2017-05-31T05:18:05.858Z,72.30
2017-05-31T05:20:34.110Z,72.10
2017-05-31T05:23:02.387Z,73.30
2017-05-31T05:25:31.034Z,74.60
2017-05-31T05:27:59.290Z,75.00
2017-05-31T05:30:27.562Z,75.30
2017-05-31T05:32:55.818Z,74.90
2017-05-31T05:35:24.070Z,75.30
2017-05-31T05:37:52.345Z,75.70
2017-05-31T05:40:20.597Z,75.40
2017-05-31T05:42:48.854Z,74.60
2017-05-31T05:45:17.130Z,74.40
2017-05-31T05:47:45.387Z,74.70
2017-05-31T05:50:13.646Z,75.30
2017-05-31T05:52:41.922Z,75.00
2017-05-31T05:55:10.174Z,74.80
2017-05-31T05:57:38.430Z,74.10
2017-05-31T06:00:06.706Z,74.60
2017-05-31T06:02:34.958Z,71.60
2017-05-31T06:05:03.209Z,68.60
2017-05-31T06:07:31.488Z,67.30
2017-05-31T06:09:59.741Z,68.10
2017-05-31T06:12:27.997Z,67.80
2017-05-31T06:14:56.273Z,68.60
2017-05-31T06:17:24.525Z,69.30
2017-05-31T06:19:53.085Z,69.30
2017-05-31T06:22:21.377Z,64.00
2017-05-31T06:24:49.627Z,60.50
2017-05-31T06:27:17.886Z,60.30
2017-05-31T06:29:46.394Z,60.40
2017-05-31T06:32:14.729Z,61.00
2017-05-31T06:34:42.981Z,62.30
2017-05-31T06:37:11.253Z,62.60
2017-05-31T06:39:39.553Z,62.50
2017-05-31T06:42:07.806Z,62.60
2017-05-31T06:44:36.082Z,63.80
2017-05-31T06:47:04.386Z,62.90
2017-05-31T06:49:32.637Z,62.50
2017-05-31T06:52:00.909Z,58.40
2017-05-31T06:54:29.161Z,53.70
2017-05-31T06:56:57.414Z,48.90
2017-05-31T06:59:25.693Z,45.10
2017-05-31T07:01:53.946Z,43.40
2017-05-31T07:04:22.198Z,41.90
2017-05-31T07:06:50.494Z,41.90
2017-05-31T07:09:18.745Z,39.90
2017-05-31T07:11:46.998Z,38.50
2017-05-31T07:14:15.273Z,39.70
2017-05-31T07:16:43.522Z,43.10
2017-05-31T07:19:11.775Z,44.80
2017-05-31T07:21:40.050Z,45.10
2017-05-31T07:24:08.302Z,42.20
2017-05-31T07:26:36.557Z,41.70
2017-05-31T07:29:04.833Z,41.90
2017-05-31T07:31:33.087Z,42.40
2017-05-31T07:34:01.337Z,44.60
2017-05-31T07:36:29.614Z,43.70
2017-05-31T07:38:57.869Z,40.90
2017-05-31T07:41:26.121Z,38.20
2017-05-31T07:43:54.397Z,37.00
2017-05-31T07:46:22.941Z,36.70
2017-05-31T07:48:51.195Z,34.90
2017-05-31T07:51:19.470Z,31.80
2017-05-31T07:53:47.721Z,32.20
2017-05-31T07:56:15.977Z,34.10
2017-05-31T07:58:44.254Z,36.50
2017-05-31T08:01:12.501Z,39.70
2017-05-31T08:03:40.753Z,40.70
2017-05-31T08:06:09.026Z,42.90
2017-05-31T08:08:37.278Z,43.00
2017-05-31T08:11:05.526Z,41.30
2017-05-31T08:13:33.802Z,38.90
2017-05-31T08:16:02.046Z,36.70
2017-05-31T08:18:30.290Z,35.90
2017-05-31T08:20:58.559Z,35.70
2017-05-31T08:23:26.814Z,36.10
2017-05-31T08:25:55.067Z,35.20
2017-05-31T08:28:23.345Z,35.90
2017-05-31T08:30:51.590Z,35.60
2017-05-31T08:33:19.839Z,38.20
2017-05-31T08:35:48.111Z,40.50
2017-05-31T08:38:16.364Z,42.30
2017-05-31T08:40:44.618Z,44.20
2017-05-31T08:43:12.886Z,42.90
2017-05-31T08:45:41.136Z,42.70
2017-05-31T08:48:09.486Z,40.50
2017-05-31T08:50:37.763Z,38.10
2017-05-31T08:53:06.018Z,37.80
2017-05-31T08:55:34.266Z,39.50
2017-05-31T08:58:02.534Z,37.10
2017-05-31T09:00:30.778Z,37.00
2017-05-31T09:02:59.026Z,36.80
2017-05-31T09:05:27.293Z,37.40
2017-05-31T09:07:55.538Z,36.50
2017-05-31T09:10:23.785Z,38.90
2017-05-31T09:12:52.066Z,38.20
2017-05-31T09:15:20.318Z,40.10
2017-05-31T09:17:48.566Z,40.20
2017-05-31T09:20:16.838Z,39.70
2017-05-31T09:22:45.098Z,40.40
2017-05-31T09:25:13.350Z,39.70
2017-05-31T09:27:41.623Z,40.70
2017-05-31T09:30:09.963Z,41.00
2017-05-31T09:32:38.218Z,40.30
2017-05-31T09:35:06.485Z,39.60
2017-05-31T09:37:35.186Z,38.20
2017-05-31T09:40:03.435Z,37.10
2017-05-31T09:42:31.714Z,36.40
2017-05-31T09:45:00.002Z,37.60
2017-05-31T09:47:28.254Z,36.20
2017-05-31T09:49:56.522Z,38.90
2017-05-31T09:52:24.766Z,38.70
2017-05-31T09:54:53.013Z,37.20
2017-05-31T09:57:21.286Z,36.70
2017-05-31T09:59:49.533Z,36.80
2017-05-31T10:02:17.777Z,36.40
2017-05-31T10:04:46.049Z,35.90
2017-05-31T10:07:14.302Z,35.90
2017-05-31T10:09:42.550Z,36.50
2017-05-31T10:12:11.130Z,34.80
2017-05-31T10:14:39.382Z,36.00
2017-05-31T10:17:07.643Z,37.10
2017-05-31T10:19:35.910Z,37.40
2017-05-31T10:22:04.169Z,36.40
2017-05-31T10:24:32.417Z,37.20
2017-05-31T10:27:00.686Z,36.10
2017-05-31T10:29:28.941Z,35.70
2017-05-31T10:31:57.185Z,34.00
2017-05-31T10:34:25.452Z,35.10
2017-05-31T10:36:53.697Z,34.20
2017-05-31T10:39:21.953Z,33.90
2017-05-31T10:41:50.226Z,34.90
2017-05-31T10:44:18.475Z,34.00
2017-05-31T10:46:46.717Z,33.90
2017-05-31T10:49:14.989Z,35.60
2017-05-31T10:51:43.238Z,36.70
2017-05-31T10:54:11.485Z,35.80
2017-05-31T10:56:39.754Z,35.90
2017-05-31T10:59:08.001Z,35.80
2017-05-31T11:01:36.245Z,34.20
2017-05-31T11:04:04.542Z,35.20
2017-05-31T11:06:32.787Z,38.00
2017-05-31T11:09:01.030Z,41.70
2017-05-31T11:11:29.365Z,37.80
2017-05-31T11:13:57.617Z,40.10
2017-05-31T11:16:25.861Z,38.40
2017-05-31T11:18:54.133Z,36.20
2017-05-31T11:21:22.382Z,33.70
2017-05-31T11:23:50.625Z,31.80
2017-05-31T11:26:18.894Z,34.00
2017-05-31T11:28:47.146Z,34.30
2017-05-31T11:31:15.394Z,35.00
2017-05-31T11:33:43.893Z,32.90
2017-05-31T11:36:12.137Z,32.20
2017-05-31T11:38:40.381Z,36.30
2017-05-31T11:41:08.645Z,33.90
2017-05-31T11:43:36.889Z,35.70
2017-05-31T11:46:05.133Z,36.50
2017-05-31T11:48:33.404Z,36.30
2017-05-31T11:51:01.658Z,36.40
2017-05-31T11:53:29.909Z,36.40
2017-05-31T11:55:58.330Z,38.40
2017-05-31T11:58:26.580Z,38.10
2017-05-31T12:00:54.829Z,37.90
2017-05-31T12:03:23.101Z,36.30
2017-05-31T12:05:51.353Z,38.80
2017-05-31T12:08:19.601Z,35.70
2017-05-31T12:10:47.866Z,34.50
2017-05-31T12:13:16.113Z,34.00
2017-05-31T12:15:44.362Z,36.30
2017-05-31T12:18:12.962Z,34.30
2017-05-31T12:20:41.205Z,33.60
2017-05-31T12:23:09.449Z,34.00
2017-05-31T12:25:37.717Z,33.80
2017-05-31T12:28:06.030Z,31.50
2017-05-31T12:30:34.274Z,31.10
2017-05-31T12:33:02.546Z,32.20
2017-05-31T12:35:30.813Z,33.30
2017-05-31T12:37:59.066Z,33.90
2017-05-31T12:40:27.335Z,32.90
2017-05-31T12:42:55.818Z,33.20
2017-05-31T12:45:24.071Z,32.40
2017-05-31T12:47:52.342Z,31.80
2017-05-31T12:50:20.591Z,34.30
2017-05-31T12:52:48.841Z,35.20
2017-05-31T12:55:17.113Z,34.00
2017-05-31T12:57:45.426Z,35.00
2017-05-31T13:00:13.674Z,37.50
2017-05-31T13:02:41.946Z,36.90
2017-05-31T13:05:10.193Z,34.90
2017-05-31T13:07:38.444Z,36.40
2017-05-31T13:10:06.714Z,38.30
2017-05-31T13:12:35.230Z,39.40
2017-05-31T13:15:03.481Z,36.90
2017-05-31T13:17:31.985Z,39.60
2017-05-31T13:20:00.251Z,41.40
2017-05-31T13:22:28.501Z,40.60
2017-05-31T13:24:56.765Z,41.80
2017-05-31T13:27:25.013Z,42.80
2017-05-31T13:29:53.318Z,43.40
2017-05-31T13:32:21.586Z,42.10
2017-05-31T13:34:49.838Z,42.20
2017-05-31T13:37:18.082Z,43.30
2017-05-31T13:39:46.350Z,42.00
2017-05-31T13:42:14.598Z,41.80
2017-05-31T13:44:42.849Z,41.20
2017-05-31T13:47:11.118Z,41.60
2017-05-31T13:49:39.370Z,41.20
2017-05-31T13:52:07.624Z,41.10
2017-05-31T13:54:35.969Z,41.50
2017-05-31T13:57:04.213Z,41.50
2017-05-31T13:59:32.497Z,42.00
2017-05-31T14:02:00.770Z,41.40
2017-05-31T14:04:29.018Z,43.00
2017-05-31T14:06:57.261Z,43.30
2017-05-31T14:09:25.531Z,40.40
2017-05-31T14:11:53.782Z,42.50
2017-05-31T14:14:22.033Z,42.30
2017-05-31T14:16:50.302Z,43.30
2017-05-31T14:19:18.556Z,44.00
2017-05-31T14:21:46.806Z,43.50
2017-05-31T14:24:15.078Z,43.30
2017-05-31T14:26:43.606Z,42.50
2017-05-31T14:29:11.853Z,41.60
2017-05-31T14:31:40.118Z,43.30
2017-05-31T14:34:08.370Z,42.40
2017-05-31T14:36:36.626Z,42.80
2017-05-31T14:39:04.898Z,42.90
2017-05-31T14:41:33.150Z,41.90
2017-05-31T14:44:01.398Z,42.20
2017-05-31T14:46:29.665Z,41.40
2017-05-31T14:48:57.926Z,41.80
2017-05-31T14:51:26.177Z,41.60
2017-05-31T14:53:54.450Z,42.20
2017-05-31T14:56:22.702Z,42.50
2017-05-31T14:58:50.950Z,42.40
2017-05-31T15:01:19.213Z,42.50
2017-05-31T15:03:47.457Z,43.00
2017-05-31T15:06:15.706Z,43.00
2017-05-31T15:08:43.977Z,42.40
2017-05-31T15:11:12.224Z,43.10
2017-05-31T15:13:40.469Z,42.90
2017-05-31T15:16:08.866Z,42.30
2017-05-31T15:18:37.115Z,41.80
2017-05-31T15:21:05.366Z,41.80
2017-05-31T15:23:33.942Z,41.20
2017-05-31T15:26:02.194Z,42.00
2017-05-31T15:28:30.442Z,41.60
2017-05-31T15:30:58.714Z,40.80
2017-05-31T15:33:26.962Z,40.80
2017-05-31T15:35:55.209Z,40.40
2017-05-31T15:38:23.480Z,40.60
2017-05-31T15:40:51.730Z,40.50
2017-05-31T15:43:19.977Z,40.30
2017-05-31T15:45:48.270Z,39.80
2017-05-31T15:48:16.523Z,41.10
2017-05-31T15:50:44.774Z,40.60
2017-05-31T15:53:13.045Z,39.20
2017-05-31T15:55:41.631Z,38.70
2017-05-31T15:58:09.886Z,37.80
2017-05-31T16:00:38.156Z,38.30
2017-05-31T16:03:06.406Z,39.90
2017-05-31T16:05:34.691Z,37.20
2017-05-31T16:08:02.958Z,38.60
2017-05-31T16:10:31.210Z,39.00
2017-05-31T16:12:59.457Z,39.80
2017-05-31T16:15:27.793Z,39.50
2017-05-31T16:17:56.038Z,39.60
2017-05-31T16:20:24.345Z,41.20
2017-05-31T16:22:52.622Z,40.40
2017-05-31T16:25:20.870Z,39.70
2017-05-31T16:27:49.117Z,39.40
2017-05-31T16:30:17.381Z,39.50
2017-05-31T16:32:45.628Z,39.80
2017-05-31T16:35:13.873Z,41.30
2017-05-31T16:37:42.826Z,39.50
2017-05-31T16:40:11.070Z,40.80
2017-05-31T16:42:39.315Z,41.90
2017-05-31T16:45:07.582Z,41.60
2017-05-31T16:47:35.890Z,40.70
2017-05-31T16:50:04.142Z,41.20
2017-05-31T16:52:32.409Z,41.00
2017-05-31T16:55:00.690Z,41.10
2017-05-31T16:57:28.960Z,42.90
2017-05-31T16:59:57.233Z,43.00
2017-05-31T17:02:25.478Z,44.00
2017-05-31T17:04:53.727Z,42.40
2017-05-31T17:07:21.991Z,43.40
2017-05-31T17:09:50.237Z,43.50
2017-05-31T17:12:18.490Z,43.40
2017-05-31T17:14:46.765Z,43.30
2017-05-31T17:17:15.013Z,43.30
2017-05-31T17:19:43.257Z,43.30
2017-05-31T17:22:11.529Z,43.40
2017-05-31T17:24:39.782Z,42.00
2017-05-31T17:27:08.029Z,44.20
2017-05-31T17:29:36.294Z,43.80
2017-05-31T17:32:04.638Z,45.00
2017-05-31T17:34:32.890Z,46.10
2017-05-31T17:37:01.154Z,46.80
2017-05-31T17:39:29.401Z,47.00
2017-05-31T17:41:57.645Z,48.10
2017-05-31T17:44:25.922Z,48.80
2017-05-31T17:46:54.168Z,48.30
2017-05-31T17:49:22.428Z,48.40
2017-05-31T17:51:50.693Z,48.50
2017-05-31T17:54:18.941Z,49.30
2017-05-31T17:56:48.181Z,49.90
2017-05-31T17:59:16.518Z,50.20
2017-05-31T18:01:44.778Z,50.30
2017-05-31T18:04:13.029Z,50.80
2017-05-31T18:06:41.293Z,51.20
2017-05-31T18:09:10.076Z,50.90
2017-05-31T18:11:38.346Z,52.20
2017-05-31T18:14:06.634Z,50.70
2017-05-31T18:16:34.897Z,51.40
2017-05-31T18:19:03.153Z,51.80
2017-05-31T18:21:31.522Z,52.20
2017-05-31T18:23:59.774Z,52.00
2017-05-31T18:26:28.020Z,51.80
2017-05-31T18:28:56.306Z,52.00
2017-05-31T18:31:24.550Z,52.40
2017-05-31T18:33:52.802Z,53.40
2017-05-31T18:36:21.141Z,53.00
2017-05-31T18:38:49.389Z,53.70
2017-05-31T18:41:17.641Z,53.20
2017-05-31T18:43:45.921Z,53.60
2017-05-31T18:46:14.175Z,53.30
2017-05-31T18:48:43.005Z,53.60
2017-05-31T18:51:11.274Z,53.60
2017-05-31T18:53:39.547Z,53.70
2017-05-31T18:56:07.797Z,53.90
2017-05-31T18:58:36.065Z,53.40
2017-05-31T19:01:04.314Z,54.10
2017-05-31T19:03:32.561Z,54.30
2017-05-31T19:06:00.829Z,54.20
2017-05-31T19:08:29.078Z,55.20
2017-05-31T19:10:57.329Z,54.80
2017-05-31T19:13:25.597Z,54.80
2017-05-31T19:15:53.849Z,54.80
2017-05-31T19:18:22.097Z,55.40
2017-05-31T19:20:50.362Z,55.20
2017-05-31T19:23:18.607Z,55.90
2017-05-31T19:25:46.850Z,56.30
2017-05-31T19:28:15.121Z,56.90
2017-05-31T19:30:43.366Z,57.20
2017-05-31T19:33:11.619Z,57.20
2017-05-31T19:35:39.911Z,57.30
2017-05-31T19:38:08.163Z,57.80
2017-05-31T19:40:36.658Z,57.90
2017-05-31T19:43:04.930Z,58.10
2017-05-31T19:45:33.177Z,58.90
2017-05-31T19:48:01.425Z,59.00
2017-05-31T19:50:29.690Z,58.50
2017-05-31T19:52:57.933Z,58.90
2017-05-31T19:55:26.182Z,59.00
2017-05-31T19:57:54.450Z,59.20
2017-05-31T20:00:22.705Z,59.30
2017-05-31T20:02:50.958Z,59.20
2017-05-31T20:05:19.225Z,59.00
2017-05-31T20:07:47.474Z,58.60
2017-05-31T20:10:15.721Z,58.60
2017-05-31T20:12:43.987Z,59.70
2017-05-31T20:15:12.238Z,59.50
2017-05-31T20:17:40.490Z,59.00
2017-05-31T20:20:08.762Z,59.40
2017-05-31T20:22:37.014Z,59.00
2017-05-31T20:25:05.257Z,59.00
2017-05-31T20:27:33.539Z,60.00
2017-05-31T20:30:01.791Z,59.80
2017-05-31T20:32:30.040Z,59.70
2017-05-31T20:34:58.310Z,59.90
2017-05-31T20:37:26.553Z,59.80
2017-05-31T20:39:54.802Z,60.30
2017-05-31T20:42:23.076Z,60.50
2017-05-31T20:44:51.333Z,59.90
2017-05-31T20:47:19.586Z,60.20
2017-05-31T20:49:47.853Z,58.40
2017-05-31T20:52:16.102Z,59.30
2017-05-31T20:54:44.350Z,60.10
2017-05-31T20:57:12.624Z,60.10
2017-05-31T20:59:40.870Z,59.40
2017-05-31T21:02:09.127Z,60.30
2017-05-31T21:04:37.394Z,61.10
2017-05-31T21:07:05.662Z,60.40
2017-05-31T21:09:33.907Z,59.70
2017-05-31T21:12:02.177Z,60.20
2017-05-31T21:14:30.429Z,58.80
2017-05-31T21:16:58.678Z,59.70
2017-05-31T21:19:26.945Z,60.10
2017-05-31T21:21:55.192Z,59.90
2017-05-31T21:24:23.446Z,59.70
2017-05-31T21:26:51.717Z,59.50
2017-05-31T21:29:19.970Z,59.20
2017-05-31T21:31:48.226Z,59.20
2017-05-31T21:34:16.498Z,62.30
2017-05-31T21:36:44.747Z,64.40
2017-05-31T21:39:12.997Z,64.50
2017-05-31T21:41:41.262Z,64.90
2017-05-31T21:44:09.514Z,65.50
2017-05-31T21:46:37.761Z,66.10
2017-05-31T21:49:06.025Z,66.20
2017-05-31T21:51:34.270Z,66.50
2017-05-31T21:54:02.521Z,67.00
2017-05-31T21:56:30.790Z,67.60
2017-05-31T21:58:59.130Z,68.30
2017-05-31T22:01:27.377Z,67.00
2017-05-31T22:03:55.650Z,66.50
2017-05-31T22:06:23.906Z,68.00
2017-05-31T22:08:52.159Z,68.70
2017-05-31T22:11:20.441Z,69.20
2017-05-31T22:13:48.685Z,68.90
2017-05-31T22:16:16.937Z,69.20
2017-05-31T22:18:45.310Z,68.60
2017-05-31T22:21:13.562Z,67.70
2017-05-31T22:23:41.816Z,67.00
2017-05-31T22:26:10.094Z,66.70
2017-05-31T22:28:38.339Z,67.10
2017-05-31T22:31:06.589Z,69.80
2017-05-31T22:33:34.858Z,70.50
2017-05-31T22:36:03.112Z,70.90
2017-05-31T22:38:31.433Z,70.50
2017-05-31T22:41:00.117Z,69.70
2017-05-31T22:43:28.362Z,69.90
2017-05-31T22:45:56.617Z,70.90
2017-05-31T22:48:25.301Z,70.10
2017-05-31T22:50:53.550Z,70.50
2017-05-31T22:53:21.794Z,71.30
2017-05-31T22:55:50.069Z,71.60
2017-05-31T22:58:18.322Z,71.10
2017-05-31T23:00:46.578Z,71.30
2017-05-31T23:03:14.850Z,71.50
2017-05-31T23:05:43.105Z,71.90
2017-05-31T23:08:11.361Z,73.10
2017-05-31T23:10:39.641Z,74.30
2017-05-31T23:13:08.162Z,73.70
2017-05-31T23:15:36.413Z,73.50
2017-05-31T23:18:04.685Z,73.60
2017-05-31T23:20:32.944Z,73.50
2017-05-31T23:23:01.210Z,73.50
2017-05-31T23:25:29.473Z,74.90
2017-05-31T23:27:57.721Z,74.30
2017-05-31T23:30:26.398Z,74.30
2017-05-31T23:32:54.674Z,73.30
2017-05-31T23:35:22.929Z,73.00
2017-05-31T23:37:51.185Z,73.30
2017-05-31T23:40:19.453Z,73.20
2017-05-31T23:42:47.706Z,73.60
2017-05-31T23:45:15.963Z,74.10
2017-05-31T23:47:44.239Z,74.30
2017-05-31T23:50:12.493Z,73.90
2017-05-31T23:52:40.746Z,74.50
2017-05-31T23:55:09.018Z,74.40
2017-05-31T23:57:37.269Z,75.20
